createdAt,value
2023-04-02T00:01:37.639Z,99.90
2023-04-02T00:04:21.433Z,99.90
2023-04-02T00:06:53.578Z,99.90
2023-04-02T00:09:36.810Z,99.90
2023-04-02T00:12:19.088Z,99.90
2023-04-02T00:14:48.196Z,99.90
2023-04-02T00:17:15.581Z,99.90
2023-04-02T00:19:48.433Z,99.90
2023-04-02T00:22:20.431Z,99.90
2023-04-02T00:27:17.948Z,99.90
2023-04-02T00:29:49.011Z,99.90
2023-04-02T00:32:21.883Z,99.90
2023-04-02T00:34:50.097Z,99.90
2023-04-02T00:37:23.199Z,99.90
2023-04-02T00:39:52.799Z,99.90
2023-04-02T00:42:20.451Z,99.90
2023-04-02T00:44:49.369Z,99.90
2023-04-02T00:47:20.328Z,99.90
2023-04-02T00:49:49.707Z,99.90
2023-04-02T00:52:19.134Z,99.90
2023-04-02T00:54:50.226Z,99.90
2023-04-02T00:57:22.528Z,99.90
2023-04-02T00:59:55.376Z,99.90
2023-04-02T01:02:27.324Z,99.90
2023-04-02T01:04:56.372Z,99.90
2023-04-02T01:07:43.544Z,99.90
2023-04-02T01:10:23.951Z,99.90
2023-04-02T01:13:00.524Z,99.90
2023-04-02T01:15:33.080Z,99.90
2023-04-02T01:18:19.264Z,99.90
2023-04-02T01:21:21.284Z,99.90
2023-04-02T01:24:01.322Z,99.90
2023-04-02T01:26:49.573Z,99.90
2023-04-02T01:29:20.046Z,99.90
2023-04-02T01:31:48.382Z,99.90
2023-04-02T01:34:17.619Z,99.90
2023-04-02T01:37:04.612Z,99.90
2023-04-02T01:39:41.730Z,99.90
2023-04-02T01:42:13.989Z,99.90
2023-04-02T01:44:44.446Z,99.90
2023-04-02T01:47:13.158Z,99.90
2023-04-02T01:49:41.901Z,99.90
2023-04-02T01:52:12.267Z,99.90
2023-04-02T01:54:42.675Z,99.90
2023-04-02T01:57:09.722Z,99.90
2023-04-02T01:59:36.643Z,99.90
2023-04-02T02:02:05.835Z,99.90
2023-04-02T02:04:33.678Z,99.90
2023-04-02T02:07:02.121Z,99.90
2023-04-02T02:09:31.688Z,99.90
2023-04-02T02:11:58.897Z,99.90
2023-04-02T02:14:27.201Z,99.90
2023-04-02T02:16:55.976Z,99.90
2023-04-02T02:19:28.447Z,99.90
2023-04-02T02:21:57.620Z,99.90
2023-04-02T02:24:26.621Z,99.90
2023-04-02T02:27:04.997Z,99.90
2023-04-02T02:29:34.878Z,99.90
2023-04-02T02:32:02.450Z,99.90
2023-04-02T02:34:36.457Z,99.90
2023-04-02T02:37:11.342Z,99.90
2023-04-02T02:39:40.574Z,99.90
2023-04-02T02:42:13.861Z,99.90
2023-04-02T02:44:46.186Z,99.90
2023-04-02T02:47:16.184Z,99.90
2023-04-02T02:49:49.112Z,99.90
2023-04-02T02:52:18.990Z,99.90
2023-04-02T02:54:49.399Z,99.90
2023-04-02T02:57:19.567Z,99.90
2023-04-02T02:59:46.894Z,99.90
2023-04-02T03:02:15.747Z,99.90
2023-04-02T03:04:49.078Z,99.90
2023-04-02T03:09:52.264Z,99.90
2023-04-02T03:12:41.776Z,99.90
2023-04-02T03:15:18.450Z,99.90
2023-04-02T03:17:51.098Z,99.90
2023-04-02T03:20:23.535Z,99.90
2023-04-02T03:22:55.783Z,99.90
2023-04-02T03:25:32.098Z,99.90
2023-04-02T03:28:04.318Z,99.90
2023-04-02T03:30:37.610Z,99.90
2023-04-02T03:33:09.140Z,99.90
2023-04-02T03:35:41.430Z,99.90
2023-04-02T03:38:14.834Z,99.90
2023-04-02T03:40:44.427Z,99.90
2023-04-02T03:43:18.181Z,99.90
2023-04-02T03:45:49.526Z,99.90
2023-04-02T03:48:22.806Z,99.90
2023-04-02T03:50:55.941Z,99.90
2023-04-02T03:53:24.180Z,99.90
2023-04-02T03:55:51.296Z,99.90
2023-04-02T03:58:23.395Z,99.90
2023-04-02T04:00:55.555Z,99.90
2023-04-02T04:03:28.457Z,99.90
2023-04-02T04:05:59.583Z,99.90
2023-04-02T04:08:33.821Z,99.90
2023-04-02T04:11:07.092Z,99.90
2023-04-02T04:13:40.097Z,99.90
2023-04-02T04:16:11.649Z,99.90
2023-04-02T04:18:45.853Z,99.90
2023-04-02T04:21:22.079Z,99.90
2023-04-02T04:23:50.804Z,99.90
2023-04-02T04:26:23.804Z,99.90
2023-04-02T04:28:59.807Z,99.90
2023-04-02T04:31:33.925Z,99.90
2023-04-02T04:34:07.444Z,99.90
2023-04-02T04:36:53.053Z,99.90
2023-04-02T04:39:24.566Z,99.90
2023-04-02T04:41:53.550Z,99.90
2023-04-02T04:44:23.375Z,99.90
2023-04-02T04:46:56.304Z,99.90
2023-04-02T04:49:55.168Z,99.90
2023-04-02T04:52:25.723Z,99.90
2023-04-02T04:54:52.651Z,99.90
2023-04-02T04:57:29.353Z,99.90
2023-04-02T05:00:05.524Z,99.90
2023-04-02T05:02:38.229Z,99.90
2023-04-02T05:05:18.032Z,99.90
2023-04-02T05:07:50.789Z,99.90
2023-04-02T05:10:24.207Z,99.90
2023-04-02T05:12:54.821Z,99.90
2023-04-02T05:15:26.479Z,99.90
2023-04-02T05:17:59.042Z,99.90
2023-04-02T05:20:31.222Z,99.90
2023-04-02T05:23:02.681Z,99.90
2023-04-02T05:25:31.008Z,99.90
2023-04-02T05:28:03.320Z,99.90
2023-04-02T05:30:41.080Z,99.90
2023-04-02T05:33:20.643Z,99.90
2023-04-02T05:35:50.981Z,99.90
2023-04-02T05:38:20.922Z,99.90
2023-04-02T05:40:51.053Z,99.90
2023-04-02T05:43:23.157Z,99.90
2023-04-02T05:45:53.652Z,99.90
2023-04-02T05:48:25.261Z,99.90
2023-04-02T05:50:55.463Z,99.90
2023-04-02T05:53:26.083Z,99.90
2023-04-02T05:55:57.170Z,99.90
2023-04-02T05:58:36.393Z,99.90
2023-04-02T06:01:18.156Z,99.90
2023-04-02T06:03:51.513Z,99.90
2023-04-02T06:06:26.839Z,99.90
2023-04-02T06:09:00.223Z,99.90
2023-04-02T06:11:30.971Z,99.90
2023-04-02T06:13:58.351Z,99.90
2023-04-02T06:16:27.892Z,99.90
2023-04-02T06:18:56.112Z,99.90
2023-04-02T06:21:22.827Z,99.90
2023-04-02T06:23:54.896Z,99.90
2023-04-02T06:26:26.382Z,99.90
2023-04-02T06:29:00.915Z,99.90
2023-04-02T06:31:34.600Z,99.90
2023-04-02T06:36:28.248Z,99.90
2023-04-02T06:38:58.728Z,99.90
2023-04-02T06:41:26.057Z,99.90
2023-04-02T06:43:56.195Z,99.90
2023-04-02T06:46:28.330Z,99.90
2023-04-02T06:49:01.612Z,99.90
2023-04-02T06:51:30.945Z,99.90
2023-04-02T06:56:38.007Z,99.90
2023-04-02T06:59:06.656Z,99.90
2023-04-02T07:01:39.259Z,99.90
2023-04-02T07:04:06.404Z,99.90
2023-04-02T07:06:33.164Z,99.90
2023-04-02T07:11:27.397Z,99.90
2023-04-02T07:13:54.002Z,99.90
2023-04-02T07:16:24.477Z,99.90
2023-04-02T07:18:51.494Z,99.90
2023-04-02T07:21:18.154Z,99.90
2023-04-02T07:23:45.153Z,99.90
2023-04-02T07:26:14.582Z,99.90
2023-04-02T07:28:42.108Z,99.90
2023-04-02T07:31:16.391Z,99.90
2023-04-02T07:33:43.474Z,99.90
2023-04-02T07:36:14.321Z,99.90
2023-04-02T07:38:41.123Z,99.90
2023-04-02T07:41:07.970Z,99.90
2023-04-02T07:43:35.321Z,99.90
2023-04-02T07:46:02.951Z,99.90
2023-04-02T07:48:29.762Z,99.90
2023-04-02T07:50:56.392Z,99.90
2023-04-02T07:53:29.093Z,99.90
2023-04-02T07:58:22.779Z,99.90
2023-04-02T08:00:50.365Z,99.90
2023-04-02T08:03:17.966Z,99.90
2023-04-02T08:05:50.302Z,99.90
2023-04-02T08:08:16.910Z,99.90
2023-04-02T08:10:43.705Z,99.90
2023-04-02T08:15:58.754Z,99.90
2023-04-02T08:18:26.315Z,99.90
2023-04-02T08:20:53.186Z,99.90
2023-04-02T08:25:47.834Z,99.90
2023-04-02T08:28:14.658Z,99.90
2023-04-02T08:30:42.135Z,99.90
2023-04-02T08:33:08.927Z,99.90
2023-04-02T08:35:36.521Z,99.90
2023-04-02T08:38:03.426Z,99.90
2023-04-02T08:40:35.506Z,99.90
2023-04-02T08:43:14.962Z,99.90
2023-04-02T08:46:01.036Z,99.90
2023-04-02T08:48:31.017Z,99.90
2023-04-02T08:50:59.939Z,99.90
2023-04-02T08:53:31.155Z,99.90
2023-04-02T08:56:04.786Z,99.90
2023-04-02T08:58:41.095Z,99.90
2023-04-02T09:01:16.121Z,99.90
2023-04-02T09:03:47.038Z,99.90
2023-04-02T09:06:18.963Z,99.90
2023-04-02T09:08:47.950Z,99.90
2023-04-02T09:11:22.137Z,99.90
2023-04-02T09:13:54.454Z,99.90
2023-04-02T09:16:33.716Z,99.90
2023-04-02T09:19:00.876Z,99.90
2023-04-02T09:21:34.511Z,99.90
2023-04-02T09:26:32.816Z,99.90
2023-04-02T09:29:13.714Z,99.90
2023-04-02T09:31:44.565Z,99.90
2023-04-02T09:34:28.698Z,99.90
2023-04-02T09:36:56.562Z,99.90
2023-04-02T09:39:25.580Z,99.90
2023-04-02T09:42:02.898Z,99.90
2023-04-02T09:44:33.034Z,99.90
2023-04-02T09:47:03.124Z,99.90
2023-04-02T09:49:32.245Z,99.90
2023-04-02T09:52:21.064Z,99.90
2023-04-02T09:55:05.242Z,99.90
2023-04-02T09:57:32.718Z,99.90
2023-04-02T10:00:29.732Z,99.90
2023-04-02T10:03:18.884Z,99.90
2023-04-02T10:05:47.024Z,99.90
2023-04-02T10:08:24.397Z,99.90
2023-04-02T10:10:55.298Z,99.90
2023-04-02T10:13:28.139Z,99.90
2023-04-02T10:16:00.505Z,99.90
2023-04-02T10:18:38.628Z,99.90
2023-04-02T10:21:07.812Z,99.90
2023-04-02T10:23:35.231Z,99.90
2023-04-02T10:26:14.962Z,99.90
2023-04-02T10:28:54.710Z,99.90
2023-04-02T10:31:25.108Z,99.90
2023-04-02T10:34:00.183Z,99.90
2023-04-02T10:36:39.776Z,99.90
2023-04-02T10:39:12.216Z,99.90
2023-04-02T10:41:45.387Z,99.90
2023-04-02T10:44:26.640Z,99.90
2023-04-02T10:47:03.794Z,99.90
2023-04-02T10:49:38.155Z,99.90
2023-04-02T10:52:12.731Z,99.90
2023-04-02T10:54:47.640Z,99.90
2023-04-02T10:57:24.912Z,99.90
2023-04-02T10:59:57.310Z,99.90
2023-04-02T11:02:31.717Z,99.90
2023-04-02T11:05:05.053Z,99.90
2023-04-02T11:07:41.264Z,99.90
2023-04-02T11:10:18.183Z,99.90
2023-04-02T11:12:51.992Z,99.90
2023-04-02T11:15:22.938Z,99.90
2023-04-02T11:20:43.452Z,99.90
2023-04-02T11:23:12.221Z,99.90
2023-04-02T11:25:40.962Z,99.90
2023-04-02T11:28:26.775Z,99.90
2023-04-02T11:30:54.102Z,99.90
2023-04-02T11:33:44.083Z,99.90
2023-04-02T11:36:50.014Z,99.90
2023-04-02T11:39:45.609Z,99.90
2023-04-02T11:42:27.770Z,99.90
2023-04-02T11:44:55.050Z,99.90
2023-04-02T11:47:23.488Z,99.90
2023-04-02T11:50:01.598Z,99.90
2023-04-02T11:52:36.329Z,99.90
2023-04-02T11:55:21.599Z,99.90
2023-04-02T11:58:20.360Z,99.90
2023-04-02T12:01:22.542Z,99.90
2023-04-02T12:04:15.162Z,99.90
2023-04-02T12:06:54.326Z,99.90
2023-04-02T12:09:23.134Z,99.90
2023-04-02T12:11:52.907Z,99.90
2023-04-02T12:14:45.289Z,99.90
2023-04-02T12:17:21.087Z,99.90
2023-04-02T12:19:50.418Z,99.90
2023-04-02T12:22:21.588Z,99.90
2023-04-02T12:24:49.225Z,99.90
2023-04-02T12:27:22.115Z,99.90
2023-04-02T12:29:50.520Z,99.90
2023-04-02T12:32:22.995Z,99.90
2023-04-02T12:34:52.785Z,99.90
2023-04-02T12:37:22.047Z,99.90
2023-04-02T12:39:54.125Z,99.90
2023-04-02T12:42:29.034Z,99.90
2023-04-02T12:44:56.509Z,99.90
2023-04-02T12:47:23.422Z,99.90
2023-04-02T12:49:50.901Z,99.90
2023-04-02T12:52:20.317Z,99.90
2023-04-02T12:54:49.370Z,99.90
2023-04-02T12:57:38.762Z,99.90
2023-04-02T13:00:35.579Z,99.90
2023-04-02T13:03:17.155Z,99.90
2023-04-02T13:05:48.128Z,99.90
2023-04-02T13:08:18.350Z,99.90
2023-04-02T13:10:45.816Z,99.90
2023-04-02T13:13:18.361Z,99.90
2023-04-02T13:15:45.651Z,99.90
2023-04-02T13:18:20.672Z,99.90
2023-04-02T13:20:57.601Z,99.90
2023-04-02T13:23:32.247Z,99.90
2023-04-02T13:26:14.297Z,99.90
2023-04-02T13:28:40.962Z,99.90
2023-04-02T13:31:15.263Z,98.80
2023-04-02T13:33:41.891Z,99.50
2023-04-02T13:36:12.581Z,99.90
2023-04-02T13:38:39.242Z,99.90
2023-04-02T13:41:06.016Z,99.90
2023-04-02T13:43:32.680Z,99.90
2023-04-02T13:46:05.701Z,99.90
2023-04-02T13:48:33.484Z,99.90
2023-04-02T13:51:01.312Z,99.00
2023-04-02T13:53:31.780Z,99.90
2023-04-02T13:55:58.414Z,99.60
2023-04-02T13:58:25.183Z,99.10
2023-04-02T14:00:51.918Z,96.30
2023-04-02T14:03:21.686Z,92.50
2023-04-02T14:05:56.445Z,90.30
2023-04-02T14:08:35.980Z,91.50
2023-04-02T14:11:27.012Z,91.90
2023-04-02T14:14:20.343Z,87.30
2023-04-02T14:16:59.258Z,75.50
2023-04-02T14:19:47.632Z,76.50
2023-04-02T14:22:27.584Z,87.20
2023-04-02T14:25:05.485Z,91.90
2023-04-02T14:27:40.617Z,91.30
2023-04-02T14:30:13.866Z,83.10
2023-04-02T14:32:52.788Z,71.70
2023-04-02T14:35:26.494Z,72.00
2023-04-02T14:38:02.892Z,80.50
2023-04-02T14:40:35.580Z,89.50
2023-04-02T14:43:07.770Z,91.20
2023-04-02T14:45:44.499Z,92.50
2023-04-02T14:48:24.892Z,92.60
2023-04-02T14:50:55.978Z,86.30
2023-04-02T14:53:29.619Z,79.30
2023-04-02T14:56:00.142Z,87.30
2023-04-02T14:58:32.435Z,91.60
2023-04-02T15:01:02.878Z,93.00
2023-04-02T15:03:33.091Z,93.80
2023-04-02T15:06:02.715Z,94.90
2023-04-02T15:08:34.418Z,95.70
2023-04-02T15:11:08.071Z,96.40
2023-04-02T15:13:44.336Z,93.40
2023-04-02T15:16:16.226Z,93.80
2023-04-02T15:18:42.939Z,96.00
2023-04-02T15:21:29.727Z,96.40
2023-04-02T15:24:03.066Z,97.70
2023-04-02T15:26:38.274Z,98.50
2023-04-02T15:29:25.948Z,99.00
2023-04-02T15:32:01.216Z,99.10
2023-04-02T15:34:47.497Z,98.30
2023-04-02T15:37:22.933Z,99.20
2023-04-02T15:40:07.265Z,99.60
2023-04-02T15:42:38.628Z,99.90
2023-04-02T15:45:43.004Z,99.90
2023-04-02T15:48:29.114Z,99.90
2023-04-02T15:51:10.626Z,99.50
2023-04-02T15:53:47.550Z,99.50
2023-04-02T15:56:24.504Z,99.90
2023-04-02T15:59:07.802Z,99.90
2023-04-02T16:01:41.967Z,99.90
2023-04-02T16:04:38.478Z,99.90
2023-04-02T16:07:22.606Z,99.90
2023-04-02T16:09:56.946Z,99.90
2023-04-02T16:12:27.116Z,99.90
2023-04-02T16:15:05.266Z,99.90
2023-04-02T16:17:36.944Z,99.90
2023-04-02T16:20:16.858Z,99.90
2023-04-02T16:22:57.677Z,99.90
2023-04-02T16:25:30.790Z,99.90
2023-04-02T16:28:08.326Z,99.90
2023-04-02T16:30:53.537Z,99.90
2023-04-02T16:33:40.503Z,99.90
2023-04-02T16:36:18.684Z,99.90
2023-04-02T16:38:55.456Z,99.90
2023-04-02T16:41:31.311Z,99.90
2023-04-02T16:44:07.400Z,99.90
2023-04-02T16:46:52.847Z,99.90
2023-04-02T16:49:26.963Z,99.90
2023-04-02T16:52:02.107Z,99.90
2023-04-02T16:54:35.394Z,99.90
2023-04-02T16:57:24.001Z,99.90
2023-04-02T17:00:00.595Z,99.90
2023-04-02T17:02:41.516Z,99.90
2023-04-02T17:05:17.752Z,99.90
2023-04-02T17:07:54.192Z,99.90
2023-04-02T17:10:26.777Z,99.90
2023-04-02T17:13:15.073Z,99.90
2023-04-02T17:15:53.124Z,99.90
2023-04-02T17:18:23.900Z,99.90
2023-04-02T17:20:51.333Z,99.90
2023-04-02T17:23:19.546Z,99.90
2023-04-02T17:25:51.300Z,99.90
2023-04-02T17:28:24.641Z,99.90
2023-04-02T17:30:54.052Z,99.90
2023-04-02T17:33:21.446Z,99.90
2023-04-02T17:36:01.854Z,99.90
2023-04-02T17:38:39.932Z,99.90
2023-04-02T17:41:12.991Z,99.90
2023-04-02T17:43:47.714Z,99.90
2023-04-02T17:46:23.365Z,99.90
2023-04-02T17:48:56.721Z,99.90
2023-04-02T17:51:32.370Z,99.90
2023-04-02T17:54:12.808Z,99.90
2023-04-02T17:56:58.675Z,99.90
2023-04-02T17:59:48.231Z,99.90
2023-04-02T18:02:35.689Z,99.90
2023-04-02T18:05:16.361Z,99.90
2023-04-02T18:07:50.416Z,99.90
2023-04-02T18:10:25.180Z,99.90
2023-04-02T18:12:56.766Z,99.90
2023-04-02T18:15:45.875Z,99.90
2023-04-02T18:18:25.949Z,99.90
2023-04-02T18:21:04.700Z,99.90
2023-04-02T18:23:42.457Z,99.90
2023-04-02T18:26:14.296Z,99.90
2023-04-02T18:28:51.669Z,99.90
2023-04-02T18:31:26.807Z,99.90
2023-04-02T18:34:35.613Z,99.90
2023-04-02T18:37:14.723Z,99.90
2023-04-02T18:39:53.565Z,99.90
2023-04-02T18:42:36.683Z,99.90
2023-04-02T18:45:14.202Z,99.90
2023-04-02T18:47:48.835Z,99.90
2023-04-02T18:50:19.449Z,99.90
2023-04-02T18:52:47.124Z,99.90
2023-04-02T18:55:17.238Z,99.90
2023-04-02T18:57:46.068Z,99.90
2023-04-02T19:00:23.290Z,99.90
2023-04-02T19:02:53.127Z,99.90
2023-04-02T19:05:25.049Z,99.90
2023-04-02T19:08:00.402Z,99.90
2023-04-02T19:10:31.209Z,99.90
2023-04-02T19:15:31.443Z,99.90
2023-04-02T19:18:10.265Z,99.90
2023-04-02T19:20:43.808Z,99.90
2023-04-02T19:23:30.314Z,99.90
2023-04-02T19:26:02.045Z,99.90
2023-04-02T19:28:33.660Z,99.90
2023-04-02T19:31:29.072Z,99.90
2023-04-02T19:34:04.142Z,99.90
2023-04-02T19:36:46.707Z,99.90
2023-04-02T19:39:46.366Z,99.90
2023-04-02T19:42:21.499Z,99.90
2023-04-02T19:44:51.352Z,99.90
2023-04-02T19:47:19.817Z,99.90
2023-04-02T19:52:14.294Z,99.90
2023-04-02T19:54:41.047Z,99.90
2023-04-02T19:57:07.834Z,99.90
2023-04-02T19:59:34.939Z,99.90
2023-04-02T20:09:26.692Z,99.90
2023-04-02T20:11:53.396Z,99.90
2023-04-02T20:14:20.087Z,99.90
2023-04-02T20:19:13.817Z,99.90
2023-04-02T20:24:08.119Z,99.90
2023-04-02T20:26:35.693Z,99.90
2023-04-02T20:29:02.692Z,99.90
2023-04-02T20:33:57.527Z,99.90
2023-04-02T20:38:51.779Z,99.90
2023-04-02T20:41:19.428Z,99.90
2023-04-02T20:43:47.132Z,99.90
2023-04-02T20:46:13.876Z,99.90
2023-04-02T20:48:41.049Z,99.90
2023-04-02T20:51:09.404Z,99.90
2023-04-02T20:53:37.168Z,99.90
2023-04-02T21:01:08.811Z,99.90
2023-04-02T21:03:35.611Z,99.90
2023-04-02T21:11:02.190Z,99.90
2023-04-02T21:15:56.536Z,99.90
2023-04-02T21:18:24.054Z,99.90
2023-04-02T21:20:57.063Z,99.90
2023-04-02T21:23:23.825Z,99.90
2023-04-02T21:25:55.917Z,99.90
2023-04-02T21:30:49.769Z,99.90
2023-04-02T21:35:44.156Z,99.90
2023-04-02T21:38:10.878Z,99.90
2023-04-02T21:52:53.210Z,99.90
2023-04-02T21:57:47.020Z,99.90
2023-04-02T22:00:14.903Z,99.90
2023-04-02T22:02:41.651Z,99.90
2023-04-02T22:05:08.696Z,99.90
2023-04-02T22:07:35.371Z,99.90
2023-04-02T22:10:02.981Z,99.90
2023-04-02T22:12:29.746Z,99.90
2023-04-02T22:17:23.451Z,99.90
2023-04-02T22:19:50.189Z,99.90
2023-04-02T22:27:12.100Z,99.90
2023-04-02T22:29:38.750Z,99.90
2023-04-02T22:34:32.426Z,99.90
2023-04-02T22:36:59.159Z,99.90
2023-04-02T22:44:20.473Z,99.90
2023-04-02T22:46:47.155Z,99.90
2023-04-02T22:51:45.615Z,99.90
2023-04-02T22:54:12.478Z,99.90
2023-04-02T23:01:35.441Z,99.90
2023-04-02T23:06:31.480Z,99.90
2023-04-02T23:11:27.482Z,99.90
2023-04-02T23:13:56.465Z,99.90
2023-04-02T23:16:25.886Z,99.90
2023-04-02T23:18:53.732Z,99.90
2023-04-02T23:21:21.373Z,99.90
2023-04-02T23:23:49.751Z,99.90
2023-04-02T23:26:18.638Z,99.90
2023-04-02T23:28:45.812Z,99.90
2023-04-02T23:31:14.494Z,99.90
2023-04-02T23:33:41.565Z,99.90
2023-04-02T23:36:10.670Z,99.90
2023-04-02T23:45:58.980Z,99.90
2023-04-02T23:53:20.507Z,99.90
2023-04-02T23:55:47.301Z,99.90
2023-04-02T23:58:14.119Z,99.90
